createdAt,value
2023-01-11T00:03:29.915Z,49.70
2023-01-11T00:07:18.702Z,36.80
2023-01-11T00:11:07.536Z,39.60
2023-01-11T00:14:56.156Z,42.40
2023-01-11T00:18:44.805Z,40.40
2023-01-11T00:22:33.470Z,38.80
2023-01-11T00:26:22.636Z,38.80
2023-01-11T00:30:11.295Z,39.40
2023-01-11T00:33:59.931Z,29.90
2023-01-11T00:37:41.175Z,35.60
2023-01-11T00:41:28.341Z,30.20
2023-01-11T00:45:15.023Z,26.20
2023-01-11T00:49:03.714Z,30.60
2023-01-11T00:52:52.351Z,39.50
2023-01-11T00:56:30.884Z,33.60
2023-01-11T01:00:19.555Z,39.40
2023-01-11T01:04:00.946Z,35.20
2023-01-11T01:07:49.652Z,37.70
2023-01-11T01:11:38.363Z,37.80
2023-01-11T01:15:27.059Z,36.20
2023-01-11T01:19:19.320Z,35.90
2023-01-11T01:22:40.647Z,37.60
2023-01-11T01:26:27.841Z,30.80
2023-01-11T01:30:06.407Z,27.60
2023-01-11T01:33:55.053Z,35.20
2023-01-11T01:37:43.810Z,30.90
2023-01-11T01:41:32.475Z,39.20
2023-01-11T01:45:37.914Z,40.30
2023-01-11T01:49:44.537Z,35.80
2023-01-11T01:53:33.223Z,41.30
2023-01-11T01:57:30.769Z,33.90
2023-01-11T02:01:19.589Z,31.90
2023-01-11T02:05:07.388Z,35.00
2023-01-11T02:08:59.079Z,43.40
2023-01-11T02:12:47.801Z,42.10
2023-01-11T02:16:36.465Z,42.40
2023-01-11T02:20:27.990Z,43.00
2023-01-11T02:24:31.503Z,38.50
2023-01-11T02:28:38.379Z,39.90
2023-01-11T02:32:35.815Z,43.60
2023-01-11T02:36:36.579Z,37.30
2023-01-11T02:40:31.119Z,39.30
2023-01-11T02:44:36.483Z,43.20
2023-01-11T02:48:37.021Z,36.50
2023-01-11T02:52:25.727Z,37.90
2023-01-11T02:56:14.374Z,39.40
2023-01-11T03:00:03.082Z,38.90
2023-01-11T03:03:47.665Z,41.10
2023-01-11T03:07:54.195Z,44.90
2023-01-11T03:11:50.956Z,42.60
2023-01-11T03:16:03.716Z,37.20
2023-01-11T03:19:53.861Z,39.80
2023-01-11T03:23:47.124Z,37.60
2023-01-11T03:27:36.649Z,52.00
2023-01-11T03:31:33.019Z,36.10
2023-01-11T03:35:27.366Z,40.30
2023-01-11T03:39:18.769Z,33.90
2023-01-11T03:43:05.955Z,40.30
2023-01-11T03:47:00.486Z,41.70
2023-01-11T03:50:52.008Z,38.40
2023-01-11T03:54:33.790Z,46.50
2023-01-11T03:58:25.244Z,40.80
2023-01-11T04:02:13.942Z,52.30
2023-01-11T04:06:02.691Z,40.30
2023-01-11T04:09:51.326Z,48.10
2023-01-11T04:13:40.119Z,46.90
2023-01-11T04:17:28.850Z,46.60
2023-01-11T04:21:17.652Z,46.60
2023-01-11T04:24:55.259Z,39.70
2023-01-11T04:28:43.907Z,42.90
2023-01-11T04:32:32.612Z,47.50
2023-01-11T04:36:19.996Z,38.70
2023-01-11T04:39:58.418Z,42.00
2023-01-11T04:43:47.037Z,41.70
2023-01-11T04:47:35.734Z,39.70
2023-01-11T04:51:27.194Z,45.30
2023-01-11T04:55:15.854Z,46.80
2023-01-11T04:59:04.537Z,41.20
2023-01-11T05:02:53.262Z,48.20
2023-01-11T05:06:40.734Z,39.60
2023-01-11T05:10:29.470Z,40.80
2023-01-11T05:14:16.780Z,50.00
2023-01-11T05:18:05.457Z,47.20
2023-01-11T05:21:54.168Z,48.00
2023-01-11T05:25:42.969Z,38.70
2023-01-11T05:29:31.698Z,42.80
2023-01-11T05:33:20.389Z,40.30
2023-01-11T05:37:09.250Z,35.90
2023-01-11T05:40:58.298Z,35.70
2023-01-11T05:44:45.444Z,35.50
2023-01-11T05:48:34.139Z,44.70
2023-01-11T05:52:22.940Z,32.60
2023-01-11T05:55:51.487Z,33.20
2023-01-11T05:59:33.381Z,40.30
2023-01-11T06:03:04.358Z,31.20
2023-01-11T06:06:53.422Z,36.00
2023-01-11T06:10:42.208Z,29.00
2023-01-11T06:14:30.888Z,32.10
2023-01-11T06:18:12.144Z,31.50
2023-01-11T06:21:59.726Z,29.10
2023-01-11T06:25:48.549Z,33.70
2023-01-11T06:29:07.504Z,29.70
2023-01-11T06:32:08.708Z,35.70
2023-01-11T06:35:51.208Z,34.50
2023-01-11T06:39:29.851Z,35.40
2023-01-11T06:43:08.442Z,52.00
2023-01-11T06:46:47.052Z,44.90
2023-01-11T06:50:28.352Z,46.20
2023-01-11T06:53:47.234Z,45.50
2023-01-11T06:56:47.986Z,40.10
2023-01-11T07:00:26.680Z,36.90
2023-01-11T07:04:15.587Z,44.80
2023-01-11T07:07:52.827Z,52.40
2023-01-11T07:11:38.900Z,45.60
2023-01-11T07:15:27.672Z,45.70
2023-01-11T07:19:16.460Z,64.00
2023-01-11T07:23:05.224Z,59.00
2023-01-11T07:26:41.077Z,62.10
2023-01-11T07:29:52.357Z,77.60
2023-01-11T07:33:41.108Z,45.60
2023-01-11T07:37:28.075Z,43.10
2023-01-11T07:41:18.207Z,37.20
2023-01-11T07:44:59.669Z,33.20
2023-01-11T07:48:27.615Z,32.00
2023-01-11T07:52:16.405Z,42.50
2023-01-11T07:55:44.119Z,28.80
2023-01-11T07:59:25.689Z,39.00
2023-01-11T08:03:14.523Z,36.30
2023-01-11T08:07:03.473Z,29.00
2023-01-11T08:10:52.162Z,27.00
2023-01-11T08:14:31.967Z,25.80
2023-01-11T08:17:58.350Z,27.40
2023-01-11T08:21:39.956Z,26.70
2023-01-11T08:25:28.702Z,31.20
2023-01-11T08:29:17.396Z,35.10
2023-01-11T08:32:57.169Z,32.30
2023-01-11T08:36:45.955Z,24.90
2023-01-11T08:40:34.826Z,35.90
2023-01-11T08:44:33.599Z,28.30
2023-01-11T08:48:22.185Z,32.90
2023-01-11T08:52:11.026Z,35.00
2023-01-11T08:55:59.718Z,31.50
2023-01-11T08:59:48.527Z,30.80
2023-01-11T09:03:37.242Z,32.00
2023-01-11T09:07:25.988Z,34.30
2023-01-11T09:11:13.373Z,26.30
2023-01-11T09:15:02.077Z,31.10
2023-01-11T09:18:32.594Z,39.40
2023-01-11T09:22:19.925Z,27.40
2023-01-11T09:26:08.823Z,29.70
2023-01-11T09:29:57.581Z,30.40
2023-01-11T09:33:46.299Z,30.90
2023-01-11T09:37:35.173Z,29.10
2023-01-11T09:41:32.789Z,29.20
2023-01-11T09:45:21.544Z,21.90
2023-01-11T09:49:10.327Z,32.50
2023-01-11T09:52:59.116Z,35.80
2023-01-11T09:56:40.591Z,24.70
2023-01-11T10:00:28.907Z,30.50
2023-01-11T10:04:35.655Z,31.50
2023-01-11T10:18:39.625Z,38.30
2023-01-11T10:21:11.448Z,33.70
2023-01-11T10:25:05.916Z,27.60
2023-01-11T10:28:57.689Z,34.90
2023-01-11T10:32:55.342Z,23.90
2023-01-11T10:36:50.131Z,26.70
2023-01-11T10:40:50.698Z,29.90
2023-01-11T10:44:41.970Z,27.70
2023-01-11T10:48:39.690Z,24.60
2023-01-11T10:52:28.379Z,23.30
2023-01-11T10:55:43.155Z,28.20
2023-01-11T10:59:37.712Z,28.00
2023-01-11T11:03:27.755Z,26.40
2023-01-11T11:07:11.864Z,26.20
2023-01-11T11:11:15.856Z,23.50
2023-01-11T11:14:57.361Z,25.90
2023-01-11T11:18:35.105Z,32.80
2023-01-11T11:22:13.557Z,28.80
2023-01-11T11:25:47.835Z,25.40
2023-01-11T11:29:29.084Z,27.20
2023-01-11T11:33:20.722Z,29.70
2023-01-11T11:37:09.459Z,27.70
2023-01-11T11:40:50.727Z,25.20
2023-01-11T11:44:45.179Z,22.40
2023-01-11T11:48:27.846Z,25.20
2023-01-11T11:52:15.102Z,23.10
2023-01-11T11:56:03.816Z,25.70
2023-01-11T11:59:47.760Z,30.00
2023-01-11T12:03:39.133Z,20.80
2023-01-11T12:07:27.943Z,26.10
2023-01-11T12:11:16.665Z,23.70
2023-01-11T12:14:58.370Z,21.00
2023-01-11T12:18:48.616Z,27.00
2023-01-11T12:22:27.524Z,21.10
2023-01-11T12:26:25.263Z,20.10
2023-01-11T12:30:41.174Z,20.20
2023-01-11T12:34:32.694Z,30.20
2023-01-11T12:38:42.418Z,22.30
2023-01-11T12:42:33.801Z,23.10
2023-01-11T12:46:24.210Z,22.00
2023-01-11T12:50:17.763Z,21.20
2023-01-11T12:58:14.440Z,20.00
2023-01-11T13:02:18.591Z,16.10
2023-01-11T13:10:12.036Z,20.00
2023-01-11T13:14:20.083Z,20.00
2023-01-11T13:18:18.598Z,18.70
2023-01-11T13:22:13.307Z,22.30
2023-01-11T13:26:08.049Z,23.90
2023-01-11T13:30:14.838Z,22.10
2023-01-11T13:34:06.733Z,24.30
2023-01-11T13:38:10.402Z,21.10
2023-01-11T13:42:08.071Z,20.50
2023-01-11T13:46:05.579Z,19.30
2023-01-11T13:49:52.900Z,25.00
2023-01-11T13:53:41.698Z,21.60
2023-01-11T13:57:31.715Z,29.40
2023-01-11T14:01:20.622Z,23.10
2023-01-11T14:05:04.479Z,19.10
2023-01-11T14:08:57.946Z,23.20
2023-01-11T14:12:54.253Z,22.00
2023-01-11T14:16:45.783Z,21.80
2023-01-11T14:20:40.291Z,23.70
2023-01-11T14:24:31.096Z,27.90
2023-01-11T14:28:20.885Z,24.20
2023-01-11T14:32:14.107Z,23.20
2023-01-11T14:36:11.864Z,27.20
2023-01-11T14:39:57.229Z,25.90
2023-01-11T14:44:10.203Z,26.30
2023-01-11T14:48:04.683Z,27.60
2023-01-11T14:51:53.607Z,23.20
2023-01-11T14:55:45.543Z,23.30
2023-01-11T14:59:21.550Z,21.40
2023-01-11T15:03:13.421Z,26.00
2023-01-11T15:06:54.859Z,30.20
2023-01-11T15:10:44.858Z,25.00
2023-01-11T15:14:36.485Z,23.40
2023-01-11T15:18:13.111Z,20.90
2023-01-11T15:22:04.634Z,22.70
2023-01-11T15:25:41.714Z,27.20
2023-01-11T15:29:42.259Z,22.30
2023-01-11T15:33:31.062Z,21.70
2023-01-11T15:37:28.369Z,23.30
2023-01-11T15:41:17.630Z,28.40
2023-01-11T15:45:15.060Z,27.00
2023-01-11T15:49:25.049Z,21.10
2023-01-11T15:53:22.627Z,25.30
2023-01-11T15:56:51.894Z,27.60
2023-01-11T16:00:51.282Z,27.50
2023-01-11T16:04:43.018Z,26.60
2023-01-11T16:08:37.647Z,26.40
2023-01-11T16:12:24.487Z,25.30
2023-01-11T16:16:15.161Z,24.70
2023-01-11T16:19:46.992Z,30.30
2023-01-11T16:23:38.733Z,32.10
2023-01-11T16:27:09.532Z,26.90
2023-01-11T16:31:00.451Z,25.80
2023-01-11T16:34:49.230Z,23.20
2023-01-11T16:38:37.996Z,25.80
2023-01-11T16:42:19.489Z,21.80
2023-01-11T16:46:16.945Z,18.90
2023-01-11T16:50:07.994Z,24.90
2023-01-11T16:53:59.591Z,22.40
2023-01-11T16:57:48.348Z,20.10
2023-01-11T17:01:38.360Z,27.20
2023-01-11T17:05:29.687Z,19.80
2023-01-11T17:09:24.207Z,20.00
2023-01-11T17:13:12.896Z,20.00
2023-01-11T17:17:01.930Z,24.60
2023-01-11T17:20:33.402Z,22.70
2023-01-11T17:24:22.194Z,33.90
2023-01-11T17:28:13.645Z,41.60
2023-01-11T17:32:02.430Z,40.40
2023-01-11T17:35:51.293Z,40.70
2023-01-11T17:39:39.974Z,29.10
2023-01-11T17:43:26.920Z,26.00
2023-01-11T17:47:17.277Z,25.20
2023-01-11T17:51:08.703Z,28.60
2023-01-11T17:55:03.399Z,33.10
2023-01-11T17:58:54.894Z,29.20
2023-01-11T18:02:52.460Z,23.20
2023-01-11T18:06:30.642Z,24.50
2023-01-11T18:10:15.842Z,23.40
2023-01-11T18:14:10.222Z,22.20
2023-01-11T18:18:12.558Z,18.50
2023-01-11T18:22:07.268Z,22.00
2023-01-11T18:25:49.482Z,21.10
2023-01-11T18:29:28.030Z,16.40
2023-01-11T18:32:20.094Z,21.30
2023-01-11T18:36:14.766Z,22.20
2023-01-11T18:40:03.458Z,23.70
2023-01-11T18:43:42.204Z,21.90
2023-01-11T18:47:30.940Z,22.80
2023-01-11T18:51:10.832Z,26.90
2023-01-11T18:54:59.538Z,23.00
2023-01-11T18:58:48.255Z,25.00
2023-01-11T19:02:38.188Z,21.80
2023-01-11T19:06:27.821Z,28.50
2023-01-11T19:10:16.542Z,28.90
2023-01-11T19:13:33.923Z,22.70
2023-01-11T19:16:55.765Z,28.10
2023-01-11T19:20:34.867Z,31.40
2023-01-11T19:23:25.381Z,22.70
2023-01-11T19:26:27.702Z,26.10
2023-01-11T19:30:06.387Z,26.30
2023-01-11T19:33:55.101Z,24.90
2023-01-11T19:37:33.769Z,21.00
2023-01-11T19:41:22.551Z,21.60
2023-01-11T19:45:13.941Z,25.20
2023-01-11T19:49:02.759Z,24.60
2023-01-11T19:52:51.483Z,21.60
2023-01-11T19:56:42.879Z,23.50
2023-01-11T20:00:31.636Z,21.00
2023-01-11T20:04:20.357Z,23.50
2023-01-11T20:07:59.582Z,18.80
2023-01-11T20:11:38.104Z,19.20
2023-01-11T20:15:26.881Z,21.30
2023-01-11T20:18:29.265Z,23.90
2023-01-11T20:21:29.743Z,21.50
2023-01-11T20:24:31.213Z,24.10
2023-01-11T20:28:02.780Z,24.90
2023-01-11T20:31:50.731Z,23.80
2023-01-11T20:35:24.257Z,23.40
2023-01-11T20:39:03.991Z,26.30
2023-01-11T20:42:29.027Z,29.00
2023-01-11T20:46:00.209Z,30.30
2023-01-11T20:49:31.220Z,31.20
2023-01-11T20:53:20.000Z,32.40
2023-01-11T20:57:08.852Z,32.30
2023-01-11T21:00:50.477Z,26.60
2023-01-11T21:04:30.651Z,36.10
2023-01-11T21:08:09.145Z,34.50
2023-01-11T21:11:50.572Z,37.10
2023-01-11T21:15:28.254Z,37.40
2023-01-11T21:18:43.307Z,44.60
2023-01-11T21:22:22.477Z,46.60
2023-01-11T21:26:11.176Z,39.70
2023-01-11T21:29:59.912Z,49.90
2023-01-11T21:33:48.623Z,55.60
2023-01-11T21:37:37.454Z,46.80
2023-01-11T21:41:22.536Z,41.30
2023-01-11T21:44:37.496Z,41.90
2023-01-11T21:48:08.656Z,34.90
2023-01-11T21:51:43.014Z,33.90
2023-01-11T21:55:29.135Z,37.40
2023-01-11T21:59:17.836Z,37.50
2023-01-11T22:03:06.659Z,40.10
2023-01-11T22:06:53.855Z,41.90
2023-01-11T22:10:42.886Z,42.60
2023-01-11T22:14:31.737Z,34.80
2023-01-11T22:18:20.453Z,39.60
2023-01-11T22:22:12.153Z,41.10
2023-01-11T22:25:40.692Z,39.20
2023-01-11T22:29:31.840Z,48.30
2023-01-11T22:33:20.590Z,48.90
2023-01-11T22:37:09.418Z,56.90
2023-01-11T22:40:58.299Z,52.00
2023-01-11T22:44:47.091Z,48.50
2023-01-11T22:48:28.500Z,51.50
2023-01-11T22:52:07.322Z,48.20
2023-01-11T22:55:48.729Z,52.90
2023-01-11T22:59:37.635Z,47.70
2023-01-11T23:03:26.424Z,51.30
2023-01-11T23:07:11.811Z,40.30
2023-01-11T23:11:00.546Z,45.00
2023-01-11T23:14:41.717Z,42.40
2023-01-11T23:18:15.663Z,35.40
2023-01-11T23:22:04.405Z,46.00
2023-01-11T23:25:53.114Z,34.40
2023-01-11T23:29:41.827Z,39.60
2023-01-11T23:33:30.567Z,34.70
2023-01-11T23:37:12.105Z,44.20
2023-01-11T23:40:58.972Z,37.40
2023-01-11T23:44:47.665Z,43.30
2023-01-11T23:48:36.450Z,41.90
2023-01-11T23:52:23.829Z,41.30
2023-01-11T23:56:12.555Z,40.30
